Versión en castellano
places Weather data articles

Conditions at Mairena del Aljarafe, Sevilla, Spain
Year Month Day Show

  Date        time        Out Temp.    Out hum.   Wind Dir.    Wind speed   SL Pressure   In T. Today rain 

   05-04-2020    07:40      12.1º(-0.1)     79%      022 (N)      3.2 km/h    1015.6 hpa     22.9º    0.0 mm
   05-04-2020    07:35      12.1º(-0.1)     79%      022 (N)      3.2 km/h    1015.5 hpa     22.8º    0.0 mm
   05-04-2020    07:30      12.1º(-0.1)     79%      045(NE)      1.6 km/h    1015.5 hpa     22.8º    0.0 mm
   05-04-2020    07:25      12.2º(+0.0)     79%      045(NE)      1.6 km/h    1015.3 hpa     22.8º    0.0 mm
   05-04-2020    07:20      12.2º(+0.0)     79%      045(NE)      3.2 km/h    1015.1 hpa     22.8º    0.0 mm
   05-04-2020    07:15      12.2º(+0.0)     79%      045(NE)      3.2 km/h    1015.1 hpa     22.8º    0.0 mm
   05-04-2020    07:10      12.2º(+0.0)     79%      045(NE)      3.2 km/h    1015.1 hpa     22.7º    0.0 mm
   05-04-2020    07:05      12.2º(+0.0)     78%      045(NE)      1.6 km/h    1015.1 hpa     22.6º    0.0 mm
   05-04-2020    07:00      12.2º(+0.0)     78%      045(NE)      3.2 km/h    1015.0 hpa     22.6º    0.0 mm
   05-04-2020    06:55      12.2º(+0.0)     78%      045(NE)      3.2 km/h    1015.1 hpa     22.4º    0.0 mm
   05-04-2020    06:50      12.2º(+0.0)     78%      045(NE)      3.2 km/h    1015.1 hpa     22.4º    0.0 mm
   05-04-2020    06:45      12.3º(+0.1)     77%      045(NE)      3.2 km/h    1015.1 hpa     22.4º    0.0 mm
   05-04-2020    06:40      12.4º(+0.2)     76%      045(NE)      3.2 km/h    1015.1 hpa     22.3º    0.0 mm
   05-04-2020    06:35      12.4º(+0.2)     76%      045(NE)      3.2 km/h    1015.0 hpa     22.2º    0.0 mm
   05-04-2020    06:30      12.5º(+0.3)     76%      022 (N)      3.2 km/h    1015.2 hpa     22.1º    0.0 mm
   05-04-2020    06:25      12.6º(+0.4)     75%      045(NE)      3.2 km/h    1015.2 hpa     22.0º    0.0 mm
   05-04-2020    06:20      12.7º(+0.5)     75%      045(NE)      3.2 km/h    1015.2 hpa     21.9º    0.0 mm
   05-04-2020    06:15      12.8º(+0.6)     74%      045(NE)      4.8 km/h    1015.2 hpa     21.8º    0.0 mm
   05-04-2020    06:10      12.8º(+0.6)     73%      045(NE)      4.8 km/h    1015.1 hpa     21.8º    0.0 mm
   05-04-2020    06:05      12.9º(+0.7)     73%      045(NE)      3.2 km/h    1015.1 hpa     21.8º    0.0 mm
   05-04-2020    06:00      13.0º(+0.8)     72%      045(NE)      3.2 km/h    1015.2 hpa     21.9º    0.0 mm
   05-04-2020    05:55      13.0º(+0.8)     72%      045(NE)      3.2 km/h    1015.1 hpa     21.9º    0.0 mm
   05-04-2020    05:50      13.1º(+0.9)     72%      045(NE)      3.2 km/h    1015.1 hpa     21.9º    0.0 mm
   05-04-2020    05:45      13.1º(+0.9)     72%      045(NE)      3.2 km/h    1015.1 hpa     21.9º    0.0 mm
   05-04-2020    05:40      13.1º(+1.0)     72%      045(NE)      3.2 km/h    1015.0 hpa     21.9º    0.0 mm
   05-04-2020    05:35      13.2º(+1.1)     71%      045(NE)      3.2 km/h    1014.9 hpa     21.9º    0.0 mm
   05-04-2020    05:30      13.2º(+1.1)     71%      067(NE)      4.8 km/h    1014.9 hpa     21.9º    0.0 mm
   05-04-2020    05:25      13.2º(+1.1)     71%      045(NE)      3.2 km/h    1015.0 hpa     22.0º    0.0 mm
   05-04-2020    05:20      13.3º(+1.2)     71%      067(NE)      3.2 km/h    1015.0 hpa     22.0º    0.0 mm
   05-04-2020    05:15      13.2º(+1.0)     71%      022 (N)      3.2 km/h    1015.1 hpa     22.0º    0.0 mm
   05-04-2020    05:10      13.2º(+1.0)     72%      022 (N)      3.2 km/h    1015.2 hpa     22.0º    0.0 mm
   05-04-2020    05:05      13.2º(+1.0)     72%      022 (N)      3.2 km/h    1015.2 hpa     22.0º    0.0 mm
   05-04-2020    05:00      13.2º(+1.1)     72%      022 (N)      3.2 km/h    1015.2 hpa     22.0º    0.0 mm
   05-04-2020    04:55      13.3º(+1.2)     72%      000 (N)      1.6 km/h    1015.3 hpa     22.0º    0.0 mm
   05-04-2020    04:50      13.2º(+1.0)     72%      000 (N)      3.2 km/h    1015.3 hpa     22.1º    0.0 mm
   05-04-2020    04:45      13.2º(+1.0)     72%      000 (N)      3.2 km/h    1015.4 hpa     22.1º    0.0 mm
   05-04-2020    04:40      13.2º(+1.0)     72%      000 (N)      3.2 km/h    1015.3 hpa     22.1º    0.0 mm
   05-04-2020    04:35      13.3º(+1.1)     72%      000 (N)      3.2 km/h    1015.4 hpa     22.1º    0.0 mm
   05-04-2020    04:30      13.3º(+1.0)     72%      000 (N)      3.2 km/h    1015.4 hpa     22.1º    0.0 mm
   05-04-2020    04:25      13.3º(+1.0)     72%      000 (N)      3.2 km/h    1015.4 hpa     22.1º    0.0 mm
   05-04-2020    04:20      13.3º(+1.0)     71%      000 (N)      4.8 km/h    1015.3 hpa     22.1º    0.0 mm
   05-04-2020    04:15      13.3º(+0.9)     72%      022 (N)      4.8 km/h    1015.4 hpa     22.2º    0.0 mm
   05-04-2020    04:10      13.3º(+0.9)     72%      000 (N)      3.2 km/h    1015.2 hpa     22.2º    0.0 mm
   05-04-2020    04:05      13.3º(+0.8)     73%      022 (N)      3.2 km/h    1015.1 hpa     22.2º    0.0 mm
   05-04-2020    04:00      13.3º(+0.7)     73%      022 (N)      1.6 km/h    1015.1 hpa     22.2º    0.0 mm
   05-04-2020    03:55      13.3º(+0.7)     73%      022 (N)      1.6 km/h    1015.0 hpa     22.2º    0.0 mm
   05-04-2020    03:50      13.3º(+0.6)     73%      022 (N)      3.2 km/h    1014.8 hpa     22.2º    0.0 mm
   05-04-2020    03:45      13.2º(+0.4)     74%      022 (N)      3.2 km/h    1014.8 hpa     22.3º    0.0 mm
   05-04-2020    03:40      13.2º(+0.4)     75%      022 (N)      1.6 km/h    1015.0 hpa     22.3º    0.0 mm
   05-04-2020    03:35      13.2º(+0.3)     75%      022 (N)      3.2 km/h    1014.9 hpa     22.3º    0.0 mm
   05-04-2020    03:30      13.1º(+0.2)     75%      022 (N)      3.2 km/h    1014.9 hpa     22.3º    0.0 mm
   05-04-2020    03:25      13.1º(+0.2)     75%      000 (N)      3.2 km/h    1014.9 hpa     22.3º    0.0 mm
   05-04-2020    03:20      13.1º(+0.0)     76%      000 (N)      3.2 km/h    1015.1 hpa     22.4º    0.0 mm
   05-04-2020    03:15      13.2º(+0.1)     76%      000 (N)      3.2 km/h    1015.2 hpa     22.4º    0.0 mm
   05-04-2020    03:10      13.2º(+0.0)     76%      000 (N)      4.8 km/h    1015.3 hpa     22.4º    0.0 mm
   05-04-2020    03:05      13.4º(+0.1)     76%      022 (N)      3.2 km/h    1015.2 hpa     22.4º    0.0 mm
   05-04-2020    03:00      13.6º(+0.3)     75%      022 (N)      1.6 km/h    1015.2 hpa     22.4º    0.0 mm
   05-04-2020    02:55      13.8º(+0.4)     74%      022 (N)      1.6 km/h    1015.1 hpa     22.4º    0.0 mm
   05-04-2020    02:50      14.1º(+0.6)     74%      000 (N)      1.6 km/h    1015.1 hpa     22.4º    0.0 mm
   05-04-2020    02:45      14.2º(+0.6)     73%      000 (N)      1.6 km/h    1015.1 hpa     22.4º    0.0 mm
   05-04-2020    02:40      14.3º(+0.6)     73%      000 (N)      1.6 km/h    1015.1 hpa     22.6º    0.0 mm
   05-04-2020    02:35      14.3º(+0.5)     73%      225(SW)      3.2 km/h    1015.1 hpa     22.6º    0.0 mm
   05-04-2020    02:30      14.4º(+0.5)     72%      225(SW)      1.6 km/h    1015.1 hpa     22.6º    0.0 mm
   05-04-2020    02:25      14.4º(+0.4)     72%      225(SW)      3.2 km/h    1015.2 hpa     22.7º    0.0 mm
   05-04-2020    02:20      14.4º(+0.3)     71%      225(SW)      1.6 km/h    1015.1 hpa     22.7º    0.0 mm
   05-04-2020    02:15      14.4º(+0.2)     72%         -         0.0 km/h    1015.1 hpa     22.8º    0.0 mm
   05-04-2020    02:10      14.5º(+0.2)     72%         -         0.0 km/h    1015.1 hpa     22.8º    0.0 mm
   05-04-2020    02:05      14.5º(+0.1)     71%         -         0.0 km/h    1015.1 hpa     22.8º    0.0 mm
   05-04-2020    02:00      14.6º(+0.0)     72%      225(SW)      1.6 km/h    1015.2 hpa     22.8º    0.0 mm
   05-04-2020    01:55      14.6º(----)     71%         -         0.0 km/h    1015.2 hpa     22.8º    0.0 mm
   05-04-2020    01:50      14.6º(----)     71%      225(SW)      1.6 km/h    1015.1 hpa     22.9º    0.0 mm
   05-04-2020    01:45      14.4º(----)     72%      225(SW)      1.6 km/h    1015.1 hpa     22.9º    0.0 mm
   05-04-2020    01:40      14.6º(----)     73%      225(SW)      1.6 km/h    1015.1 hpa     22.9º    0.0 mm
   05-04-2020    01:35      14.6º(----)     72%      225(SW)      1.6 km/h    1015.1 hpa     22.9º    0.0 mm
   05-04-2020    01:30      14.6º(----)     72%      225(SW)      3.2 km/h    1015.1 hpa     22.9º    0.0 mm
   05-04-2020    01:25      14.6º(----)     72%      225(SW)      1.6 km/h    1015.1 hpa     23.1º    0.0 mm
   05-04-2020    01:20      14.6º(----)     72%      225(SW)      1.6 km/h    1015.1 hpa     23.1º    0.0 mm
   05-04-2020    01:15      14.6º(----)     72%      225(SW)      1.6 km/h    1015.2 hpa     23.1º    0.0 mm
   05-04-2020    01:10      14.6º(----)     72%         -         0.0 km/h    1015.2 hpa     23.1º    0.0 mm
   05-04-2020    01:05      14.6º(----)     71%         -         0.0 km/h    1015.2 hpa     23.1º    0.0 mm
   05-04-2020    01:00      14.7º(----)     71%         -         0.0 km/h    1015.3 hpa     23.1º    0.0 mm
   05-04-2020    00:55      14.7º(----)     71%      225(SW)      1.6 km/h    1015.2 hpa     23.1º    0.0 mm
   05-04-2020    00:50      14.7º(----)     71%         -         0.0 km/h    1015.2 hpa     23.1º    0.0 mm
   05-04-2020    00:45      14.7º(----)     71%         -         0.0 km/h    1015.2 hpa     23.1º    0.0 mm
   05-04-2020    00:40      14.7º(----)     70%      225(SW)      1.6 km/h    1015.2 hpa     23.1º    0.0 mm
   05-04-2020    00:35      14.8º(----)     70%      225(SW)      1.6 km/h    1015.0 hpa     23.1º    0.0 mm
   05-04-2020    00:30      14.8º(----)     71%         -         0.0 km/h    1014.9 hpa     23.1º    0.0 mm
   05-04-2020    00:25      14.8º(----)     71%      225(SW)      1.6 km/h    1015.0 hpa     23.1º    0.0 mm
   05-04-2020    00:20      14.9º(----)     71%      225(SW)      1.6 km/h    1015.0 hpa     23.1º    0.0 mm
   05-04-2020    00:15      14.9º(----)     71%      225(SW)      1.6 km/h    1015.0 hpa     23.1º    0.0 mm
   05-04-2020    00:10      14.9º(----)     71%      225(SW)      1.6 km/h    1015.0 hpa     23.1º    0.0 mm
   05-04-2020    00:05      15.0º(----)     71%      225(SW)      3.2 km/h    1015.1 hpa     23.1º    0.0 mm
   05-04-2020    00:00      15.1º(----)     71%      225(SW)      3.2 km/h    1015.1 hpa     23.2º    0.0 mm